Time;durP1;ratioP1;P1;durP2;ratioP2;P2;SDS_P1;SDS_P2;PMS_P1;PMS_P2;Temp;Humidity;BMP_temperature;BMP_pressure;BME280_temperature;BME280_humidity;BME280_pressure;Samples;Min_cycle;Max_cycle;Signal;HPM_P1;HPM_P2
2023/09/12 06:01:58;;;;;;;36.97;18.33;;;;;;;;;;5170144;23;20868;-68
2023/09/12 06:04:24;;;;;;;34.37;16.70;;;;;;;;;;4897663;29;20478;-67
2023/09/12 06:06:50;;;;;;;33.20;16.90;;;;;;;;;;4898191;29;20902;-68
2023/09/12 06:09:16;;;;;;;30.70;16.80;;;;;;;;;;4897974;29;20880;-68
2023/09/12 06:11:42;;;;;;;30.57;16.67;;;;;;;;;;4898283;29;20434;-74
2023/09/12 06:14:08;;;;;;;32.90;17.17;;;;;;;;;;4882208;23;1177176;-74
2023/09/12 06:16:34;;;;;;;36.90;18.03;;;;;;;;;;4933700;29;20458;-72
2023/09/12 06:19:00;;;;;;;32.53;16.43;;;;;;;;;;4917071;29;20415;-72
2023/09/12 06:21:26;;;;;;;37.27;17.13;;;;;;;;;;4910869;29;20901;-72
2023/09/12 06:24:09;;;;;;;51.00;17.97;;;;;;;;;;4916419;29;20411;-72
2023/09/12 06:26:35;;;;;;;39.47;17.30;;;;;;;;;;4897243;29;20471;-72
2023/09/12 06:29:02;;;;;;;26.63;15.90;;;;;;;;;;4896939;29;20428;-72
2023/09/12 06:31:28;;;;;;;40.90;16.43;;;;;;;;;;4897064;29;20482;-72
2023/09/12 06:33:54;;;;;;;29.10;14.90;;;;;;;;;;4898076;29;20424;-72
2023/09/12 06:36:20;;;;;;;38.67;15.60;;;;;;;;;;4896293;29;20835;-72
2023/09/12 06:38:46;;;;;;;32.90;16.87;;;;;;;;;;4897655;29;20885;-72
2023/09/12 06:41:12;;;;;;;27.07;16.33;;;;;;;;;;4897947;29;20482;-72
2023/09/12 06:43:38;;;;;;;26.03;15.50;;;;;;;;;;4897791;29;20699;-73
2023/09/12 06:46:04;;;;;;;26.20;15.90;;;;;;;;;;4897651;29;20439;-73
2023/09/12 06:48:30;;;;;;;29.60;17.60;;;;;;;;;;4897586;29;20861;-73
2023/09/12 06:50:56;;;;;;;34.33;14.67;;;;;;;;;;4897731;29;20508;-71
2023/09/12 06:53:22;;;;;;;36.60;14.80;;;;;;;;;;4900647;29;20911;-72
2023/09/12 06:55:48;;;;;;;32.17;16.67;;;;;;;;;;4900342;29;20447;-72
2023/09/12 06:58:14;;;;;;;48.93;16.37;;;;;;;;;;4896813;29;20970;-72
2023/09/12 07:00:40;;;;;;;34.60;16.50;;;;;;;;;;4905935;29;20475;-72
2023/09/12 07:03:06;;;;;;;25.77;14.70;;;;;;;;;;4895773;29;20419;-70
2023/09/12 07:05:32;;;;;;;39.67;17.37;;;;;;;;;;4899605;29;20447;-70
2023/09/12 07:07:58;;;;;;;33.90;15.20;;;;;;;;;;4897462;29;20515;-71
2023/09/12 07:10:24;;;;;;;25.27;15.63;;;;;;;;;;4913530;29;20517;-70
2023/09/12 07:12:50;;;;;;;29.10;17.10;;;;;;;;;;4896784;29;20423;-71
2023/09/12 07:15:16;;;;;;;27.40;15.00;;;;;;;;;;4897065;29;20490;-71
2023/09/12 07:17:42;;;;;;;26.40;15.90;;;;;;;;;;4912577;29;20489;-72
2023/09/12 07:20:11;;;;;;;29.30;14.73;;;;;;;;;;4915685;29;20466;-70
2023/09/12 07:22:38;;;;;;;35.40;16.60;;;;;;;;;;4905017;29;20441;-71
2023/09/12 07:25:04;;;;;;;30.77;16.37;;;;;;;;;;4896380;29;20507;-71
2023/09/12 07:27:31;;;;;;;39.77;16.70;;;;;;;;;;4911830;29;20431;-70
2023/09/12 07:29:57;;;;;;;34.47;15.47;;;;;;;;;;4910974;29;20437;-71
2023/09/12 07:32:24;;;;;;;35.20;16.67;;;;;;;;;;4900691;29;20824;-72
2023/09/12 07:34:50;;;;;;;35.10;17.10;;;;;;;;;;4898496;29;20531;-72
2023/09/12 07:37:16;;;;;;;26.80;14.33;;;;;;;;;;4921640;29;20427;-73
2023/09/12 07:39:42;;;;;;;34.33;16.60;;;;;;;;;;4931065;29;20807;-71
2023/09/12 07:42:07;;;;;;;30.47;14.70;;;;;;;;;;4919942;29;20427;-70
2023/09/12 07:44:33;;;;;;;38.60;17.90;;;;;;;;;;4915588;29;20476;-72
2023/09/12 07:46:59;;;;;;;30.47;15.77;;;;;;;;;;4915461;29;20435;-70
2023/09/12 07:49:26;;;;;;;32.40;15.07;;;;;;;;;;4915590;29;20837;-71
2023/09/12 07:51:52;;;;;;;32.83;14.30;;;;;;;;;;4915472;29;20785;-70
2023/09/12 07:54:18;;;;;;;23.27;14.97;;;;;;;;;;4915295;29;20438;-72
2023/09/12 07:56:44;;;;;;;25.60;15.27;;;;;;;;;;4914890;29;20830;-74
2023/09/12 07:59:12;;;;;;;30.80;15.50;;;;;;;;;;4915485;29;20430;-74
2023/09/12 08:01:38;;;;;;;30.17;15.97;;;;;;;;;;4907795;29;20506;-73
2023/09/12 08:04:04;;;;;;;35.30;16.60;;;;;;;;;;4905781;29;20509;-72
2023/09/12 08:06:31;;;;;;;26.13;14.70;;;;;;;;;;4915084;29;20484;-74
2023/09/12 08:08:57;;;;;;;34.93;15.63;;;;;;;;;;4902883;29;20431;-72
2023/09/12 08:11:23;;;;;;;26.70;14.77;;;;;;;;;;4896790;29;20419;-72
2023/09/12 08:13:49;;;;;;;28.70;14.17;;;;;;;;;;4897005;29;20424;-73
2023/09/12 08:16:15;;;;;;;29.10;14.43;;;;;;;;;;4896717;29;20448;-72
2023/09/12 08:18:41;;;;;;;23.80;13.00;;;;;;;;;;4896394;29;20418;-71
2023/09/12 08:21:07;;;;;;;36.50;15.20;;;;;;;;;;4896352;29;20483;-71
2023/09/12 08:23:34;;;;;;;22.67;13.77;;;;;;;;;;4895366;29;20790;-74
2023/09/12 08:26:00;;;;;;;32.40;14.33;;;;;;;;;;4896715;29;20828;-73
2023/09/12 08:28:26;;;;;;;30.50;12.80;;;;;;;;;;4896369;29;20419;-74
2023/09/12 08:30:52;;;;;;;23.57;14.00;;;;;;;;;;4897008;29;21151;-74
2023/09/12 08:33:18;;;;;;;29.63;13.90;;;;;;;;;;4897129;29;20420;-75
2023/09/12 08:35:44;;;;;;;25.23;14.73;;;;;;;;;;4896187;29;20502;-72
2023/09/12 08:38:11;;;;;;;29.13;14.33;;;;;;;;;;4896440;29;20415;-72
2023/09/12 08:40:37;;;;;;;22.97;13.60;;;;;;;;;;4896181;29;20467;-69
2023/09/12 08:43:03;;;;;;;26.30;14.00;;;;;;;;;;4896062;29;20475;-70
2023/09/12 08:45:29;;;;;;;21.57;13.67;;;;;;;;;;4896053;29;20478;-70
2023/09/12 08:47:57;;;;;;;30.50;14.00;;;;;;;;;;4894800;29;20420;-70
2023/09/12 08:50:24;;;;;;;34.23;13.70;;;;;;;;;;4896150;29;20491;-70
2023/09/12 08:52:50;;;;;;;27.33;13.60;;;;;;;;;;4895781;29;20511;-71
2023/09/12 08:55:16;;;;;;;30.00;14.13;;;;;;;;;;4896122;29;20439;-71
2023/09/12 08:57:42;;;;;;;31.20;13.57;;;;;;;;;;4895956;29;20777;-71
2023/09/12 09:00:10;;;;;;;29.83;14.23;;;;;;;;;;4895325;29;20492;-73
2023/09/12 09:02:38;;;;;;;21.90;14.00;;;;;;;;;;4895692;29;20911;-71
2023/09/12 09:05:05;;;;;;;22.47;14.87;;;;;;;;;;4895567;29;20502;-72
2023/09/12 09:07:33;;;;;;;25.93;14.80;;;;;;;;;;4897684;29;20435;-71
2023/09/12 09:09:59;;;;;;;24.80;13.20;;;;;;;;;;4914597;29;20522;-72
2023/09/12 09:12:27;;;;;;;22.00;12.67;;;;;;;;;;4915186;29;20433;-71
2023/09/12 09:14:53;;;;;;;32.20;14.17;;;;;;;;;;4916151;29;20454;-70
2023/09/12 09:17:20;;;;;;;22.53;12.77;;;;;;;;;;4913199;29;20487;-71
2023/09/12 09:19:46;;;;;;;28.33;12.80;;;;;;;;;;4899466;29;20499;-70
2023/09/12 09:22:12;;;;;;;32.10;14.73;;;;;;;;;;4897690;29;20438;-71
2023/09/12 09:24:38;;;;;;;23.47;13.30;;;;;;;;;;4899380;29;20432;-71
2023/09/12 09:27:04;;;;;;;30.10;14.10;;;;;;;;;;4899200;29;20419;-71
2023/09/12 09:29:32;;;;;;;19.97;13.00;;;;;;;;;;4909758;29;20454;-70
2023/09/12 09:31:59;;;;;;;33.60;12.53;;;;;;;;;;4917757;29;20941;-71
2023/09/12 09:34:29;;;;;;;18.20;13.07;;;;;;;;;;4918037;29;20536;-71
2023/09/12 09:36:55;;;;;;;25.53;12.83;;;;;;;;;;4917826;29;20966;-72
2023/09/12 09:39:23;;;;;;;30.27;11.93;;;;;;;;;;4917972;29;20565;-71
2023/09/12 09:41:49;;;;;;;19.97;12.20;;;;;;;;;;4917543;29;20481;-72
2023/09/12 09:44:16;;;;;;;19.97;12.53;;;;;;;;;;4917949;29;20498;-72
2023/09/12 09:46:45;;;;;;;18.57;12.80;;;;;;;;;;4917718;29;20414;-72
2023/09/12 09:49:11;;;;;;;17.73;12.17;;;;;;;;;;4917126;29;20737;-71
2023/09/12 09:51:44;;;;;;;18.83;12.43;;;;;;;;;;4917276;29;20419;-67
2023/09/12 09:54:11;;;;;;;25.30;11.90;;;;;;;;;;4917586;29;20985;-68
2023/09/12 09:56:45;;;;;;;21.83;13.23;;;;;;;;;;4917570;29;20426;-66
2023/09/12 09:59:14;;;;;;;16.00;11.20;;;;;;;;;;4918023;29;20781;-66
2023/09/12 10:01:41;;;;;;;16.90;12.27;;;;;;;;;;4917221;29;20464;-66
2023/09/12 10:04:07;;;;;;;16.97;11.80;;;;;;;;;;4917013;29;20426;-66
2023/09/12 10:06:36;;;;;;;21.70;11.60;;;;;;;;;;4917148;29;20913;-66
2023/09/12 10:09:05;;;;;;;16.33;11.70;;;;;;;;;;4917407;29;20410;-66
2023/09/12 10:11:33;;;;;;;20.93;11.90;;;;;;;;;;4917465;29;20422;-65
2023/09/12 10:14:00;;;;;;;18.23;11.17;;;;;;;;;;4917282;29;20435;-65
2023/09/12 10:16:39;;;;;;;30.43;12.00;;;;;;;;;;4915266;29;20466;-66
2023/09/12 10:19:19;;;;;;;18.33;12.00;;;;;;;;;;4914208;29;20493;-66
2023/09/12 10:21:57;;;;;;;20.10;12.30;;;;;;;;;;4917005;29;20509;-65
2023/09/12 10:24:23;;;;;;;20.40;11.70;;;;;;;;;;4916219;29;20878;-65
2023/09/12 10:26:52;;;;;;;19.93;11.93;;;;;;;;;;4911482;29;20438;-65
2023/09/12 10:29:18;;;;;;;22.77;10.60;;;;;;;;;;4916322;29;20449;-67
2023/09/12 10:31:44;;;;;;;14.60;10.70;;;;;;;;;;4898559;29;20412;-66
2023/09/12 10:34:12;;;;;;;19.20;11.87;;;;;;;;;;4898189;29;20438;-66
2023/09/12 10:36:39;;;;;;;14.97;11.70;;;;;;;;;;4911588;29;20501;-67
2023/09/12 10:39:05;;;;;;;19.73;11.90;;;;;;;;;;4916932;29;20873;-66
2023/09/12 10:41:31;;;;;;;16.07;12.10;;;;;;;;;;4916025;29;21040;-66
2023/09/12 10:43:58;;;;;;;13.57;9.80;;;;;;;;;;4916811;29;20418;-66
2023/09/12 10:46:24;;;;;;;18.20;11.40;;;;;;;;;;4905869;29;20467;-66
2023/09/12 10:48:51;;;;;;;17.83;10.80;;;;;;;;;;4897743;29;20415;-67
2023/09/12 10:51:17;;;;;;;16.50;11.60;;;;;;;;;;4897595;29;20423;-66
2023/09/12 10:53:50;;;;;;;23.50;11.83;;;;;;;;;;4897542;29;20408;-66
2023/09/12 10:56:18;;;;;;;18.53;11.57;;;;;;;;;;4897868;29;20931;-66
2023/09/12 10:59:15;;;;;;;16.03;10.37;;;;;;;;;;4893971;29;20620;-66
2023/09/12 11:01:42;;;;;;;16.80;10.80;;;;;;;;;;4893687;29;20525;-66
2023/09/12 11:04:20;;;;;;;16.50;12.00;;;;;;;;;;4896628;29;20471;-66
2023/09/12 11:06:50;;;;;;;18.90;11.80;;;;;;;;;;4897416;29;20443;-66
2023/09/12 11:09:18;;;;;;;19.90;11.10;;;;;;;;;;4908110;29;20529;-66
2023/09/12 11:11:46;;;;;;;15.83;10.97;;;;;;;;;;4916176;29;20430;-65
2023/09/12 11:14:12;;;;;;;15.80;10.10;;;;;;;;;;4916126;29;20757;-65
2023/09/12 11:16:38;;;;;;;21.57;11.97;;;;;;;;;;4903393;29;20542;-65
2023/09/12 11:19:14;;;;;;;15.43;10.77;;;;;;;;;;4898205;29;20502;-65
2023/09/12 11:21:40;;;;;;;19.63;11.10;;;;;;;;;;4915420;29;20477;-66
2023/09/12 11:24:06;;;;;;;19.07;11.50;;;;;;;;;;4915473;29;20426;-67
2023/09/12 11:26:32;;;;;;;18.27;12.53;;;;;;;;;;4916507;29;20443;-66
2023/09/12 11:29:11;;;;;;;14.43;11.13;;;;;;;;;;4917524;29;20479;-66
2023/09/12 11:31:41;;;;;;;19.97;10.27;;;;;;;;;;4916272;29;20984;-66
2023/09/12 11:34:08;;;;;;;17.23;11.63;;;;;;;;;;4912499;29;20446;-66
2023/09/12 11:36:38;;;;;;;17.77;10.80;;;;;;;;;;4915926;29;20421;-67
2023/09/12 11:39:22;;;;;;;14.40;10.23;;;;;;;;;;4916147;29;20474;-67
2023/09/12 11:41:48;;;;;;;21.23;11.27;;;;;;;;;;4915937;29;21040;-66
2023/09/12 11:44:14;;;;;;;22.67;10.67;;;;;;;;;;4916583;29;20434;-66
2023/09/12 11:46:42;;;;;;;16.67;11.40;;;;;;;;;;4916119;29;20410;-66
2023/09/12 11:49:07;;;;;;;15.33;9.30;;;;;;;;;;4916058;29;20439;-66
2023/09/12 11:51:33;;;;;;;19.50;10.70;;;;;;;;;;4916547;29;20437;-66
2023/09/12 11:54:01;;;;;;;16.03;11.00;;;;;;;;;;4915757;29;20423;-67
2023/09/12 11:56:29;;;;;;;20.27;11.30;;;;;;;;;;4915479;29;21000;-66
2023/09/12 11:58:55;;;;;;;15.60;10.70;;;;;;;;;;4914778;29;20418;-66
2023/09/12 12:01:22;;;;;;;16.70;11.10;;;;;;;;;;4915775;29;20973;-64
2023/09/12 12:03:52;;;;;;;15.47;11.03;;;;;;;;;;4915363;29;20414;-66
2023/09/12 12:06:19;;;;;;;14.73;10.03;;;;;;;;;;4915807;29;20442;-67
2023/09/12 12:08:45;;;;;;;18.40;10.10;;;;;;;;;;4915398;29;20415;-67
2023/09/12 12:11:11;;;;;;;15.87;10.27;;;;;;;;;;4913382;29;20435;-67
2023/09/12 12:13:37;;;;;;;14.37;9.20;;;;;;;;;;4915672;29;20422;-66
2023/09/12 12:16:15;;;;;;;17.50;10.70;;;;;;;;;;4907036;29;20487;-66
2023/09/12 12:18:41;;;;;;;18.10;9.80;;;;;;;;;;4896550;29;20435;-68
2023/09/12 12:21:07;;;;;;;19.20;9.83;;;;;;;;;;4896549;29;20939;-68
2023/09/12 12:23:33;;;;;;;14.90;10.03;;;;;;;;;;4896281;29;20407;-66
2023/09/12 12:26:03;;;;;;;13.93;9.83;;;;;;;;;;4909100;29;20509;-67
2023/09/12 12:28:31;;;;;;;20.20;10.20;;;;;;;;;;4915588;29;20407;-67
2023/09/12 12:30:57;;;;;;;16.07;9.23;;;;;;;;;;4914597;29;20446;-66
2023/09/12 12:33:22;;;;;;;16.00;9.73;;;;;;;;;;4914947;29;20891;-67
2023/09/12 12:35:49;;;;;;;17.40;10.20;;;;;;;;;;4915057;29;20458;-67
2023/09/12 12:38:15;;;;;;;25.93;9.90;;;;;;;;;;4900861;29;20467;-67
2023/09/12 12:40:41;;;;;;;17.53;9.53;;;;;;;;;;4896244;29;20463;-67
2023/09/12 12:43:16;;;;;;;22.13;10.53;;;;;;;;;;4896437;29;20467;-67
2023/09/12 12:45:52;;;;;;;16.47;10.00;;;;;;;;;;4896736;29;20431;-67
2023/09/12 12:48:29;;;;;;;15.00;9.03;;;;;;;;;;4900138;29;20430;-66
2023/09/12 12:50:55;;;;;;;16.27;8.57;;;;;;;;;;4881458;29;20416;-66
2023/09/12 12:53:37;;;;;;;18.10;9.90;;;;;;;;;;4881222;29;20415;-66
2023/09/12 12:56:03;;;;;;;14.87;8.57;;;;;;;;;;4881623;29;20435;-67
2023/09/12 12:58:29;;;;;;;17.47;9.80;;;;;;;;;;4881629;29;20875;-66
2023/09/12 13:00:55;;;;;;;16.23;9.23;;;;;;;;;;4891551;29;20499;-67
2023/09/12 13:03:21;;;;;;;18.20;9.27;;;;;;;;;;4899859;29;20942;-66
2023/09/12 13:05:47;;;;;;;13.43;9.70;;;;;;;;;;4898981;29;20457;-67
2023/09/12 13:08:13;;;;;;;16.87;10.40;;;;;;;;;;4900034;29;20413;-67
2023/09/12 13:10:39;;;;;;;14.70;9.30;;;;;;;;;;4899579;29;20419;-67
2023/09/12 13:13:05;;;;;;;13.67;9.40;;;;;;;;;;4899297;29;20458;-67
2023/09/12 13:15:31;;;;;;;13.97;9.33;;;;;;;;;;4899583;29;20499;-67
2023/09/12 13:17:56;;;;;;;14.90;9.43;;;;;;;;;;4899596;29;20419;-67
2023/09/12 13:20:23;;;;;;;16.00;9.43;;;;;;;;;;4899501;29;20510;-65
2023/09/12 13:22:49;;;;;;;13.83;9.30;;;;;;;;;;4899121;29;20423;-65
2023/09/12 13:25:15;;;;;;;20.50;9.10;;;;;;;;;;4899534;29;20427;-66
2023/09/12 13:27:41;;;;;;;16.20;9.20;;;;;;;;;;4899525;29;20415;-66
2023/09/12 13:30:07;;;;;;;21.83;9.80;;;;;;;;;;4899409;29;20812;-66
2023/09/12 13:32:33;;;;;;;14.90;8.67;;;;;;;;;;4898811;29;20416;-66
2023/09/12 13:34:59;;;;;;;18.90;9.73;;;;;;;;;;4899305;29;20468;-66
2023/09/12 13:37:27;;;;;;;14.93;9.00;;;;;;;;;;4899276;29;20462;-66
2023/09/12 13:39:52;;;;;;;18.17;10.20;;;;;;;;;;4899123;29;20837;-66
2023/09/12 13:42:19;;;;;;;19.47;10.10;;;;;;;;;;4898622;29;20446;-66
2023/09/12 13:44:45;;;;;;;16.60;10.50;;;;;;;;;;4897797;29;20527;-66
2023/09/12 13:47:12;;;;;;;13.87;9.07;;;;;;;;;;4899063;29;20427;-65
2023/09/12 13:49:38;;;;;;;17.13;9.83;;;;;;;;;;4898803;29;20447;-68
2023/09/12 13:52:04;;;;;;;14.20;9.00;;;;;;;;;;4898606;29;20915;-66
2023/09/12 13:54:30;;;;;;;14.70;9.40;;;;;;;;;;4898774;29;20442;-68
2023/09/12 13:56:56;;;;;;;12.17;8.80;;;;;;;;;;4898793;29;20430;-66
2023/09/12 13:59:22;;;;;;;14.07;8.90;;;;;;;;;;4898724;29;20502;-65
2023/09/12 14:01:47;;;;;;;24.73;9.80;;;;;;;;;;4898373;29;20463;-66
2023/09/12 14:04:16;;;;;;;15.37;9.60;;;;;;;;;;4898958;29;20423;-65
2023/09/12 14:06:42;;;;;;;19.70;9.93;;;;;;;;;;4898457;29;20442;-66
2023/09/12 14:09:08;;;;;;;16.47;9.37;;;;;;;;;;4898818;29;20412;-66
2023/09/12 14:11:34;;;;;;;16.80;9.03;;;;;;;;;;4897956;29;20975;-66
2023/09/12 14:14:00;;;;;;;13.97;9.93;;;;;;;;;;4898595;29;20500;-66
2023/09/12 14:16:25;;;;;;;19.60;10.67;;;;;;;;;;4898061;29;20483;-65
2023/09/12 14:18:51;;;;;;;16.73;10.60;;;;;;;;;;4898407;29;20443;-66
2023/09/12 14:21:17;;;;;;;17.87;11.00;;;;;;;;;;4898014;29;20467;-66
2023/09/12 14:23:43;;;;;;;16.67;10.60;;;;;;;;;;4898018;29;20887;-66
2023/09/12 14:26:09;;;;;;;20.37;9.80;;;;;;;;;;4898201;29;20431;-66
2023/09/12 14:28:35;;;;;;;18.87;10.43;;;;;;;;;;4898338;29;20412;-66
2023/09/12 14:31:04;;;;;;;21.90;10.90;;;;;;;;;;4898194;29;20435;-66
2023/09/12 14:33:29;;;;;;;23.17;11.20;;;;;;;;;;4898506;29;20419;-64
2023/09/12 14:35:55;;;;;;;16.27;9.43;;;;;;;;;;4899206;29;20446;-65
2023/09/12 14:38:22;;;;;;;14.13;9.00;;;;;;;;;;4899201;29;20416;-66
2023/09/12 14:40:48;;;;;;;16.97;10.20;;;;;;;;;;4898049;29;20475;-66
2023/09/12 14:43:14;;;;;;;15.30;10.10;;;;;;;;;;4897878;29;20428;-66
2023/09/12 14:45:40;;;;;;;16.00;10.30;;;;;;;;;;4910345;29;20446;-65
2023/09/12 14:48:06;;;;;;;17.67;10.70;;;;;;;;;;4916927;29;20836;-66
2023/09/12 14:50:32;;;;;;;17.90;10.63;;;;;;;;;;4898905;29;20431;-65
2023/09/12 14:52:58;;;;;;;19.03;10.10;;;;;;;;;;4897752;29;20430;-66
2023/09/12 14:55:24;;;;;;;15.67;10.50;;;;;;;;;;4898039;29;20482;-66
2023/09/12 14:57:52;;;;;;;21.40;10.60;;;;;;;;;;4898168;29;20416;-67
2023/09/12 15:00:18;;;;;;;15.90;10.60;;;;;;;;;;4894085;29;20470;-67
2023/09/12 15:02:44;;;;;;;22.27;10.30;;;;;;;;;;4898037;29;20434;-66
2023/09/12 15:05:10;;;;;;;19.47;10.83;;;;;;;;;;4898140;29;20443;-67
2023/09/12 15:07:37;;;;;;;22.03;11.40;;;;;;;;;;4893542;29;20936;-67
2023/09/12 15:10:03;;;;;;;18.93;10.60;;;;;;;;;;4895193;29;20435;-67
2023/09/12 15:12:29;;;;;;;17.20;11.07;;;;;;;;;;4900758;29;20450;-66
2023/09/12 15:14:55;;;;;;;15.90;10.07;;;;;;;;;;4900976;29;20485;-67
2023/09/12 15:17:21;;;;;;;25.67;11.93;;;;;;;;;;4898035;29;20423;-66
2023/09/12 15:19:47;;;;;;;17.53;11.33;;;;;;;;;;4897283;29;20423;-65
2023/09/12 15:22:13;;;;;;;13.43;10.30;;;;;;;;;;4895265;29;20522;-66
2023/09/12 15:24:41;;;;;;;17.57;10.23;;;;;;;;;;4896897;29;20456;-65
2023/09/12 15:27:07;;;;;;;15.90;10.47;;;;;;;;;;4896955;29;20450;-66
2023/09/12 15:29:32;;;;;;;15.87;9.73;;;;;;;;;;4896283;29;20435;-66
2023/09/12 15:32:00;;;;;;;22.93;10.90;;;;;;;;;;4896789;29;20915;-66
2023/09/12 15:34:26;;;;;;;21.50;10.70;;;;;;;;;;4897270;29;20546;-66
2023/09/12 15:37:06;;;;;;;17.90;10.40;;;;;;;;;;4897134;29;20435;-66
2023/09/12 15:39:32;;;;;;;17.27;9.77;;;;;;;;;;4897401;29;20427;-66
2023/09/12 15:41:57;;;;;;;13.33;9.40;;;;;;;;;;4896175;29;20482;-66
2023/09/12 15:44:25;;;;;;;16.73;10.23;;;;;;;;;;4897061;29;20475;-66
2023/09/12 15:46:51;;;;;;;14.60;9.47;;;;;;;;;;4896979;29;20931;-67
2023/09/12 15:49:17;;;;;;;13.03;9.67;;;;;;;;;;4896985;29;20479;-67
2023/09/12 15:51:43;;;;;;;24.87;11.00;;;;;;;;;;4896687;29;20978;-67
2023/09/12 15:54:09;;;;;;;16.63;10.10;;;;;;;;;;4897095;29;20420;-67
2023/09/12 15:56:35;;;;;;;20.90;9.50;;;;;;;;;;4896638;29;20483;-67
2023/09/12 15:59:01;;;;;;;13.83;9.67;;;;;;;;;;4896790;29;20438;-67
2023/09/12 16:01:27;;;;;;;22.07;10.63;;;;;;;;;;4896508;29;20481;-67
2023/09/12 16:03:54;;;;;;;19.20;10.10;;;;;;;;;;4896321;29;20419;-67
2023/09/12 16:06:20;;;;;;;13.03;9.10;;;;;;;;;;4896119;29;20515;-67
2023/09/12 16:08:46;;;;;;;14.83;10.63;;;;;;;;;;4896619;29;20420;-67
2023/09/12 16:11:12;;;;;;;14.87;9.63;;;;;;;;;;4896597;29;20427;-67
2023/09/12 16:13:38;;;;;;;17.80;9.87;;;;;;;;;;4896800;29;20473;-67
2023/09/12 16:16:04;;;;;;;14.10;9.63;;;;;;;;;;4895609;29;20990;-67
2023/09/12 16:18:30;;;;;;;17.27;10.00;;;;;;;;;;4895343;29;20792;-66
2023/09/12 16:20:58;;;;;;;16.20;10.43;;;;;;;;;;4895797;29;20558;-66
2023/09/12 16:23:27;;;;;;;15.13;10.07;;;;;;;;;;4907538;29;20431;-66
2023/09/12 16:25:53;;;;;;;20.33;11.00;;;;;;;;;;4903288;29;20804;-67
2023/09/12 16:28:23;;;;;;;12.70;9.30;;;;;;;;;;4896892;29;20776;-67
2023/09/12 16:30:49;;;;;;;23.13;10.83;;;;;;;;;;4896989;29;20426;-66
2023/09/12 16:33:15;;;;;;;15.33;9.40;;;;;;;;;;4895915;29;20483;-65
2023/09/12 16:35:41;;;;;;;15.40;9.47;;;;;;;;;;4891738;29;20566;-67
2023/09/12 16:38:07;;;;;;;20.80;10.57;;;;;;;;;;4896265;29;20616;-67
2023/09/12 16:40:33;;;;;;;16.10;9.87;;;;;;;;;;4896891;29;20486;-67
2023/09/12 16:42:59;;;;;;;14.37;10.50;;;;;;;;;;4895968;29;20429;-65
2023/09/12 16:45:24;;;;;;;15.70;9.70;;;;;;;;;;4896227;29;20457;-65
2023/09/12 16:47:51;;;;;;;15.80;10.20;;;;;;;;;;4896336;29;20475;-66
2023/09/12 16:50:18;;;;;;;17.87;9.87;;;;;;;;;;4897027;29;21359;-65
2023/09/12 16:52:44;;;;;;;19.93;10.67;;;;;;;;;;4894407;29;20435;-65
2023/09/12 16:55:12;;;;;;;21.90;9.37;;;;;;;;;;4896214;29;20450;-65
2023/09/12 16:57:38;;;;;;;18.10;8.90;;;;;;;;;;4895955;29;20864;-65
2023/09/12 17:00:05;;;;;;;19.00;10.57;;;;;;;;;;4896044;29;20451;-65
2023/09/12 17:02:34;;;;;;;15.73;10.20;;;;;;;;;;4896100;29;20417;-65
2023/09/12 17:05:01;;;;;;;13.67;8.63;;;;;;;;;;4896294;29;20475;-66
2023/09/12 17:07:27;;;;;;;13.60;9.10;;;;;;;;;;4895815;29;20431;-65
2023/09/12 17:09:53;;;;;;;21.73;10.40;;;;;;;;;;4896061;29;20942;-66
2023/09/12 17:12:19;;;;;;;19.10;10.20;;;;;;;;;;4895743;29;20423;-65
2023/09/12 17:14:45;;;;;;;20.10;11.23;;;;;;;;;;4894589;29;20953;-65
2023/09/12 17:17:11;;;;;;;16.43;10.47;;;;;;;;;;4894251;29;20434;-65
2023/09/12 17:19:36;;;;;;;15.97;10.40;;;;;;;;;;4896050;29;20518;-65
2023/09/12 17:22:03;;;;;;;13.23;10.20;;;;;;;;;;4895756;29;20470;-65
2023/09/12 17:24:29;;;;;;;16.23;10.60;;;;;;;;;;4895776;29;20450;-65
2023/09/12 17:26:55;;;;;;;19.27;11.47;;;;;;;;;;4896171;29;20818;-65
2023/09/12 17:29:22;;;;;;;18.27;11.67;;;;;;;;;;4895764;29;20425;-65
2023/09/12 17:31:49;;;;;;;18.57;11.10;;;;;;;;;;4894844;29;20518;-65
2023/09/12 17:34:15;;;;;;;15.33;9.90;;;;;;;;;;4897651;29;20427;-65
2023/09/12 17:36:42;;;;;;;18.90;10.40;;;;;;;;;;4898523;29;20849;-65
2023/09/12 17:39:09;;;;;;;15.00;11.20;;;;;;;;;;4899238;29;20423;-65
2023/09/12 17:41:35;;;;;;;16.30;10.30;;;;;;;;;;4893277;29;20898;-66
2023/09/12 17:44:02;;;;;;;15.90;9.07;;;;;;;;;;4896667;29;20462;-66
2023/09/12 17:46:28;;;;;;;13.57;10.57;;;;;;;;;;4898408;29;20518;-66
2023/09/12 17:48:54;;;;;;;16.03;10.03;;;;;;;;;;4898568;29;20422;-66
2023/09/12 17:51:20;;;;;;;12.67;9.63;;;;;;;;;;4898433;29;20744;-66
2023/09/12 17:53:46;;;;;;;14.60;9.70;;;;;;;;;;4898601;29;20420;-66
2023/09/12 17:56:12;;;;;;;16.30;9.67;;;;;;;;;;4898469;29;20935;-66
2023/09/12 17:58:38;;;;;;;16.43;9.30;;;;;;;;;;4898540;29;20419;-66
2023/09/12 18:01:04;;;;;;;16.93;8.50;;;;;;;;;;4898273;29;20451;-64
2023/09/12 18:03:31;;;;;;;15.47;9.60;;;;;;;;;;4898616;29;20935;-65
2023/09/12 18:05:57;;;;;;;14.07;8.47;;;;;;;;;;4898585;29;20599;-65
2023/09/12 18:08:23;;;;;;;16.83;8.50;;;;;;;;;;4898650;29;20502;-65
2023/09/12 18:10:50;;;;;;;16.57;9.37;;;;;;;;;;4898712;29;20506;-65
2023/09/12 18:13:16;;;;;;;17.60;9.27;;;;;;;;;;4897920;29;20912;-65
2023/09/12 18:15:42;;;;;;;14.30;10.13;;;;;;;;;;4898551;29;20467;-65
2023/09/12 18:18:08;;;;;;;13.97;9.37;;;;;;;;;;4897367;29;20484;-65
2023/09/12 18:20:34;;;;;;;15.60;8.93;;;;;;;;;;4898265;29;20462;-65
2023/09/12 18:23:00;;;;;;;14.20;10.80;;;;;;;;;;4898110;29;20916;-65
2023/09/12 18:25:28;;;;;;;15.40;10.07;;;;;;;;;;4898169;29;20975;-65
2023/09/12 18:27:54;;;;;;;17.00;10.57;;;;;;;;;;4898667;29;20419;-65
2023/09/12 18:30:20;;;;;;;15.27;10.60;;;;;;;;;;4897967;29;20760;-66
2023/09/12 18:32:45;;;;;;;20.70;10.20;;;;;;;;;;4898035;29;20427;-65
2023/09/12 18:35:11;;;;;;;23.67;10.30;;;;;;;;;;4898138;29;20483;-65
2023/09/12 18:37:37;;;;;;;15.03;8.80;;;;;;;;;;4898000;29;20423;-65
2023/09/12 18:40:04;;;;;;;16.80;9.47;;;;;;;;;;4897733;29;20798;-65
2023/09/12 18:42:30;;;;;;;13.33;8.83;;;;;;;;;;4898201;29;20931;-65
2023/09/12 18:44:56;;;;;;;14.53;9.73;;;;;;;;;;4897082;29;20446;-65
2023/09/12 18:47:22;;;;;;;19.67;10.57;;;;;;;;;;4896387;29;20849;-65
2023/09/12 18:49:48;;;;;;;15.40;10.13;;;;;;;;;;4897983;29;20511;-64
2023/09/12 18:52:14;;;;;;;16.23;9.07;;;;;;;;;;4897469;29;20789;-65
2023/09/12 18:54:40;;;;;;;17.73;9.93;;;;;;;;;;4899594;29;20447;-65
2023/09/12 18:57:12;;;;;;;14.20;9.13;;;;;;;;;;4900973;29;20431;-65
2023/09/12 18:59:39;;;;;;;18.93;9.20;;;;;;;;;;4897989;29;20802;-65
2023/09/12 19:02:05;;;;;;;14.23;9.43;;;;;;;;;;4897389;29;20467;-65
2023/09/12 19:04:32;;;;;;;15.40;11.07;;;;;;;;;;4897817;29;20924;-65
2023/09/12 19:06:58;;;;;;;16.43;10.00;;;;;;;;;;4897846;29;20435;-66
2023/09/12 19:09:24;;;;;;;15.80;10.60;;;;;;;;;;4897917;29;20427;-65
2023/09/12 19:11:50;;;;;;;16.90;10.10;;;;;;;;;;4897452;29;20424;-65
2023/09/12 19:14:16;;;;;;;18.50;10.10;;;;;;;;;;4897185;29;20463;-65
2023/09/12 19:16:42;;;;;;;14.53;10.07;;;;;;;;;;4897539;29;20793;-65
2023/09/12 19:19:09;;;;;;;18.07;11.00;;;;;;;;;;4897420;29;20434;-64
2023/09/12 19:21:35;;;;;;;17.33;12.20;;;;;;;;;;4897076;29;20471;-65
2023/09/12 19:24:04;;;;;;;23.00;10.70;;;;;;;;;;4897419;29;20487;-65
2023/09/12 19:26:30;;;;;;;22.40;10.30;;;;;;;;;;4893960;29;20447;-65
2023/09/12 19:28:58;;;;;;;23.50;10.27;;;;;;;;;;4897088;29;20848;-65
2023/09/12 19:31:24;;;;;;;18.33;10.20;;;;;;;;;;4897300;29;20535;-65
2023/09/12 19:33:50;;;;;;;16.03;11.03;;;;;;;;;;4897022;29;20438;-64
2023/09/12 19:36:17;;;;;;;15.43;9.70;;;;;;;;;;4897406;29;20436;-64
2023/09/12 19:38:43;;;;;;;19.70;10.60;;;;;;;;;;4895961;29;20432;-64
2023/09/12 19:41:08;;;;;;;18.20;10.93;;;;;;;;;;4896921;29;20463;-64
2023/09/12 19:43:34;;;;;;;19.90;10.20;;;;;;;;;;4895598;29;20427;-65
2023/09/12 19:46:04;;;;;;;18.10;11.10;;;;;;;;;;4897167;29;20443;-65
2023/09/12 19:48:30;;;;;;;18.17;10.93;;;;;;;;;;4897021;29;20434;-65
2023/09/12 19:50:56;;;;;;;22.67;11.83;;;;;;;;;;4897094;29;20434;-64
2023/09/12 19:53:22;;;;;;;26.03;11.60;;;;;;;;;;4896792;29;20923;-65
2023/09/12 19:55:52;;;;;;;17.87;10.67;;;;;;;;;;4896798;29;20496;-65
2023/09/12 19:58:18;;;;;;;19.33;11.43;;;;;;;;;;4896690;29;20421;-64
2023/09/12 20:00:45;;;;;;;18.17;10.13;;;;;;;;;;4895973;29;20489;-65
2023/09/12 20:03:10;;;;;;;18.23;10.37;;;;;;;;;;4895945;29;20427;-65
2023/09/12 20:05:37;;;;;;;32.33;11.63;;;;;;;;;;4896630;29;20445;-65
2023/09/12 20:08:03;;;;;;;17.40;10.03;;;;;;;;;;4896594;29;20475;-67
2023/09/12 20:10:29;;;;;;;21.43;10.70;;;;;;;;;;4895266;29;20424;-65
2023/09/12 20:12:55;;;;;;;18.30;11.00;;;;;;;;;;4896317;29;20819;-65
2023/09/12 20:15:21;;;;;;;17.60;10.67;;;;;;;;;;4896392;29;20470;-65
2023/09/12 20:17:48;;;;;;;17.30;10.97;;;;;;;;;;4897276;29;20434;-65
2023/09/12 20:20:15;;;;;;;17.70;10.10;;;;;;;;;;4896455;29;20428;-65